sensor_id;sensor_type;location;lat;lon;timestamp;pressure;altitude;pressure_sealevel;temperature;humidity
16255;BME280;8235;52.198;9.904;2023-05-07T00:00:54;101217.03;;;10.50;93.94
16255;BME280;8235;52.198;9.904;2023-05-07T00:03:22;101219.84;;;10.47;94.13
16255;BME280;8235;52.198;9.904;2023-05-07T00:05:48;101217.25;;;10.46;94.40
16255;BME280;8235;52.198;9.904;2023-05-07T00:08:15;101219.13;;;10.43;94.17
16255;BME280;8235;52.198;9.904;2023-05-07T00:10:41;101216.63;;;10.40;94.63
16255;BME280;8235;52.198;9.904;2023-05-07T00:13:08;101213.97;;;10.40;95.06
16255;BME280;8235;52.198;9.904;2023-05-07T00:15:34;101213.13;;;10.40;94.77
16255;BME280;8235;52.198;9.904;2023-05-07T00:18:01;101218.56;;;10.38;95.24
16255;BME280;8235;52.198;9.904;2023-05-07T00:20:29;101205.25;;;10.38;95.32
16255;BME280;8235;52.198;9.904;2023-05-07T00:22:55;101207.03;;;10.38;95.37
16255;BME280;8235;52.198;9.904;2023-05-07T00:25:22;101207.19;;;10.35;95.68
16255;BME280;8235;52.198;9.904;2023-05-07T00:27:48;101202.81;;;10.34;95.51
16255;BME280;8235;52.198;9.904;2023-05-07T00:30:15;101201.00;;;10.34;96.19
16255;BME280;8235;52.198;9.904;2023-05-07T00:32:41;101194.91;;;10.32;95.66
16255;BME280;8235;52.198;9.904;2023-05-07T00:35:10;101193.97;;;10.33;96.13
16255;BME280;8235;52.198;9.904;2023-05-07T00:37:38;101190.44;;;10.33;96.13
16255;BME280;8235;52.198;9.904;2023-05-07T00:40:06;101182.53;;;10.31;96.25
16255;BME280;8235;52.198;9.904;2023-05-07T00:42:33;101186.06;;;10.32;96.50
16255;BME280;8235;52.198;9.904;2023-05-07T00:44:59;101184.34;;;10.31;96.27
16255;BME280;8235;52.198;9.904;2023-05-07T00:47:26;101170.25;;;10.29;96.50
16255;BME280;8235;52.198;9.904;2023-05-07T00:49:53;101183.63;;;10.27;96.22
16255;BME280;8235;52.198;9.904;2023-05-07T00:52:20;101184.56;;;10.26;96.19
16255;BME280;8235;52.198;9.904;2023-05-07T00:54:49;101182.84;;;10.25;96.72
16255;BME280;8235;52.198;9.904;2023-05-07T00:57:15;101189.19;;;10.23;96.38
16255;BME280;8235;52.198;9.904;2023-05-07T00:59:42;101184.09;;;10.18;96.93
16255;BME280;8235;52.198;9.904;2023-05-07T01:02:08;101193.97;;;10.16;96.75
16255;BME280;8235;52.198;9.904;2023-05-07T01:04:35;101178.00;;;10.16;97.44
16255;BME280;8235;52.198;9.904;2023-05-07T01:07:02;101190.53;;;10.14;97.55
16255;BME280;8235;52.198;9.904;2023-05-07T01:09:29;101196.72;;;10.15;97.58
16255;BME280;8235;52.198;9.904;2023-05-07T01:11:57;101187.09;;;10.12;97.82
16255;BME280;8235;52.198;9.904;2023-05-07T01:14:24;101191.63;;;10.10;97.52
16255;BME280;8235;52.198;9.904;2023-05-07T01:16:51;101187.31;;;10.07;97.86
16255;BME280;8235;52.198;9.904;2023-05-07T01:19:18;101190.91;;;10.06;97.83
16255;BME280;8235;52.198;9.904;2023-05-07T01:21:47;101196.41;;;10.03;98.42
16255;BME280;8235;52.198;9.904;2023-05-07T01:24:15;101196.50;;;10.02;98.21
16255;BME280;8235;52.198;9.904;2023-05-07T01:26:42;101202.75;;;10.01;98.30
16255;BME280;8235;52.198;9.904;2023-05-07T01:29:09;101196.66;;;9.99;98.88
16255;BME280;8235;52.198;9.904;2023-05-07T01:31:36;101203.00;;;9.96;98.72
16255;BME280;8235;52.198;9.904;2023-05-07T01:34:04;101192.44;;;9.95;99.55
16255;BME280;8235;52.198;9.904;2023-05-07T01:36:31;101202.22;;;9.94;99.27
16255;BME280;8235;52.198;9.904;2023-05-07T01:38:58;101199.63;;;9.93;99.29
16255;BME280;8235;52.198;9.904;2023-05-07T01:41:27;101195.25;;;9.92;99.54
16255;BME280;8235;52.198;9.904;2023-05-07T01:43:54;101206.81;;;9.91;99.04
16255;BME280;8235;52.198;9.904;2023-05-07T01:46:21;101206.03;;;9.89;99.70
16255;BME280;8235;52.198;9.904;2023-05-07T01:48:49;101206.97;;;9.88;99.31
16255;BME280;8235;52.198;9.904;2023-05-07T01:51:16;101194.63;;;9.87;99.55
16255;BME280;8235;52.198;9.904;2023-05-07T01:53:42;101194.81;;;9.84;99.11
16255;BME280;8235;52.198;9.904;2023-05-07T01:56:10;101196.69;;;9.82;99.67
16255;BME280;8235;52.198;9.904;2023-05-07T01:58:38;101187.91;;;9.80;99.21
16255;BME280;8235;52.198;9.904;2023-05-07T02:01:05;101186.09;;;9.80;99.03
16255;BME280;8235;52.198;9.904;2023-05-07T02:03:31;101188.06;;;9.77;99.36
16255;BME280;8235;52.198;9.904;2023-05-07T02:05:58;101187.28;;;9.74;99.26
16255;BME280;8235;52.198;9.904;2023-05-07T02:08:24;101196.13;;;9.75;99.15
16255;BME280;8235;52.198;9.904;2023-05-07T02:10:50;101197.91;;;9.74;99.73
16255;BME280;8235;52.198;9.904;2023-05-07T02:13:19;101199.72;;;9.74;99.67
16255;BME280;8235;52.198;9.904;2023-05-07T02:15:48;101201.44;;;9.75;98.98
16255;BME280;8235;52.198;9.904;2023-05-07T02:18:16;101202.31;;;9.75;98.84
16255;BME280;8235;52.198;9.904;2023-05-07T02:20:43;101200.50;;;9.76;99.00
16255;BME280;8235;52.198;9.904;2023-05-07T02:23:09;101196.13;;;9.75;98.57
16255;BME280;8235;52.198;9.904;2023-05-07T02:25:35;101220.91;;;9.75;98.54
16255;BME280;8235;52.198;9.904;2023-05-07T02:28:02;101216.53;;;9.74;99.01
16255;BME280;8235;52.198;9.904;2023-05-07T02:30:28;101224.44;;;9.76;98.79
16255;BME280;8235;52.198;9.904;2023-05-07T02:32:56;101231.63;;;9.74;98.60
16255;BME280;8235;52.198;9.904;2023-05-07T02:35:24;101222.72;;;9.75;98.56
16255;BME280;8235;52.198;9.904;2023-05-07T02:37:50;101230.78;;;9.73;98.59
16255;BME280;8235;52.198;9.904;2023-05-07T02:40:17;101221.00;;;9.74;98.11
16255;BME280;8235;52.198;9.904;2023-05-07T02:42:43;101225.44;;;9.73;98.21
16255;BME280;8235;52.198;9.904;2023-05-07T02:45:10;101232.56;;;9.73;98.43
16255;BME280;8235;52.198;9.904;2023-05-07T02:47:36;101236.09;;;9.73;97.82
16255;BME280;8235;52.198;9.904;2023-05-07T02:50:06;101232.56;;;9.73;98.06
16255;BME280;8235;52.198;9.904;2023-05-07T02:52:32;101234.38;;;9.72;97.97
16255;BME280;8235;52.198;9.904;2023-05-07T02:54:59;101233.50;;;9.72;98.03
16255;BME280;8235;52.198;9.904;2023-05-07T02:57:25;101226.47;;;9.71;98.16
16255;BME280;8235;52.198;9.904;2023-05-07T02:59:52;101216.69;;;9.71;98.26
16255;BME280;8235;52.198;9.904;2023-05-07T03:02:18;101213.94;;;9.73;97.22
16255;BME280;8235;52.198;9.904;2023-05-07T03:04:45;101218.41;;;9.72;97.76
16255;BME280;8235;52.198;9.904;2023-05-07T03:07:13;101212.22;;;9.72;97.65
16255;BME280;8235;52.198;9.904;2023-05-07T03:09:39;101214.09;;;9.70;97.44
16255;BME280;8235;52.198;9.904;2023-05-07T03:12:06;101208.78;;;9.70;97.57
16255;BME280;8235;52.198;9.904;2023-05-07T03:14:33;101213.31;;;9.68;97.29
16255;BME280;8235;52.198;9.904;2023-05-07T03:16:59;101213.31;;;9.68;97.40
16255;BME280;8235;52.198;9.904;2023-05-07T03:19:26;101213.41;;;9.66;97.43
16255;BME280;8235;52.198;9.904;2023-05-07T03:21:52;101218.56;;;9.69;97.33
16255;BME280;8235;52.198;9.904;2023-05-07T03:24:20;101208.00;;;9.68;97.46
16255;BME280;8235;52.198;9.904;2023-05-07T03:26:46;101208.97;;;9.67;97.72
16255;BME280;8235;52.198;9.904;2023-05-07T03:29:13;101209.91;;;9.66;97.58
16255;BME280;8235;52.198;9.904;2023-05-07T03:31:39;101204.47;;;9.67;97.44
16255;BME280;8235;52.198;9.904;2023-05-07T03:34:06;101197.53;;;9.65;97.34
16255;BME280;8235;52.198;9.904;2023-05-07T03:36:32;101188.69;;;9.64;97.63
16255;BME280;8235;52.198;9.904;2023-05-07T03:38:59;101194.03;;;9.64;98.16
16255;BME280;8235;52.198;9.904;2023-05-07T03:41:26;101195.88;;;9.62;97.93
16255;BME280;8235;52.198;9.904;2023-05-07T03:43:54;101202.94;;;9.63;97.64
16255;BME280;8235;52.198;9.904;2023-05-07T03:46:21;101196.75;;;9.63;98.02
16255;BME280;8235;52.198;9.904;2023-05-07T03:48:47;101205.59;;;9.63;98.08
16255;BME280;8235;52.198;9.904;2023-05-07T03:51:15;101200.28;;;9.63;97.97
16255;BME280;8235;52.198;9.904;2023-05-07T03:53:41;101210.97;;;9.62;97.79
16255;BME280;8235;52.198;9.904;2023-05-07T03:56:07;101197.84;;;9.59;98.39
16255;BME280;8235;52.198;9.904;2023-05-07T03:58:35;101199.63;;;9.58;98.66
16255;BME280;8235;52.198;9.904;2023-05-07T04:01:02;101188.13;;;9.58;98.21
16255;BME280;8235;52.198;9.904;2023-05-07T04:03:29;101211.22;;;9.57;98.74
16255;BME280;8235;52.198;9.904;2023-05-07T04:05:55;101210.41;;;9.55;98.63
16255;BME280;8235;52.198;9.904;2023-05-07T04:08:22;101224.56;;;9.56;98.70
16255;BME280;8235;52.198;9.904;2023-05-07T04:10:54;101227.31;;;9.54;98.69
16255;BME280;8235;52.198;9.904;2023-05-07T04:13:20;101226.44;;;9.54;98.54
16255;BME280;8235;52.198;9.904;2023-05-07T04:15:48;101223.78;;;9.54;98.39
16255;BME280;8235;52.198;9.904;2023-05-07T04:18:15;101226.53;;;9.52;98.74
16255;BME280;8235;52.198;9.904;2023-05-07T04:20:41;101226.59;;;9.51;98.76
16255;BME280;8235;52.198;9.904;2023-05-07T04:23:08;101223.06;;;9.50;99.24
16255;BME280;8235;52.198;9.904;2023-05-07T04:25:34;101240.00;;;9.49;99.12
16255;BME280;8235;52.198;9.904;2023-05-07T04:28:01;101239.22;;;9.47;99.36
16255;BME280;8235;52.198;9.904;2023-05-07T04:30:27;101235.75;;;9.45;99.96
16255;BME280;8235;52.198;9.904;2023-05-07T04:32:55;101233.03;;;9.47;99.77
16255;BME280;8235;52.198;9.904;2023-05-07T04:35:22;101234.03;;;9.44;99.43
16255;BME280;8235;52.198;9.904;2023-05-07T04:37:48;101235.84;;;9.44;99.83
16255;BME280;8235;52.198;9.904;2023-05-07T04:40:15;101243.72;;;9.45;99.72
16255;BME280;8235;52.198;9.904;2023-05-07T04:42:41;101246.41;;;9.45;99.82
16255;BME280;8235;52.198;9.904;2023-05-07T04:45:08;101243.81;;;9.44;99.60
16255;BME280;8235;52.198;9.904;2023-05-07T04:47:35;101246.53;;;9.42;99.49
16255;BME280;8235;52.198;9.904;2023-05-07T04:50:03;101244.81;;;9.41;99.68
16255;BME280;8235;52.198;9.904;2023-05-07T04:52:30;101254.59;;;9.40;99.31
16255;BME280;8235;52.198;9.904;2023-05-07T04:54:59;101262.41;;;9.44;99.08
16255;BME280;8235;52.198;9.904;2023-05-07T04:57:25;101260.75;;;9.41;99.39
16255;BME280;8235;52.198;9.904;2023-05-07T04:59:52;101259.91;;;9.40;99.49
16255;BME280;8235;52.198;9.904;2023-05-07T05:02:18;101262.63;;;9.39;98.87
16255;BME280;8235;52.198;9.904;2023-05-07T05:04:45;101271.41;;;9.41;99.25
16255;BME280;8235;52.198;9.904;2023-05-07T05:07:13;101269.59;;;9.42;99.36
16255;BME280;8235;52.198;9.904;2023-05-07T05:09:39;101268.66;;;9.43;98.66
16255;BME280;8235;52.198;9.904;2023-05-07T05:12:06;101269.47;;;9.45;99.06
16255;BME280;8235;52.198;9.904;2023-05-07T05:14:32;101276.56;;;9.44;98.20
16255;BME280;8235;52.198;9.904;2023-05-07T05:16:59;101271.25;;;9.44;98.03
16255;BME280;8235;52.198;9.904;2023-05-07T05:19:25;101282.03;;;9.41;98.17
16255;BME280;8235;52.198;9.904;2023-05-07T05:21:51;101274.06;;;9.41;97.88
16255;BME280;8235;52.198;9.904;2023-05-07T05:24:19;101274.06;;;9.41;98.09
16255;BME280;8235;52.198;9.904;2023-05-07T05:26:46;101275.72;;;9.44;97.87
16255;BME280;8235;52.198;9.904;2023-05-07T05:29:12;101283.63;;;9.45;97.60
16255;BME280;8235;52.198;9.904;2023-05-07T05:31:39;101280.16;;;9.43;97.17
16255;BME280;8235;52.198;9.904;2023-05-07T05:34:06;101281.97;;;9.43;97.49
16255;BME280;8235;52.198;9.904;2023-05-07T05:36:33;101283.75;;;9.42;97.14
16255;BME280;8235;52.198;9.904;2023-05-07T05:38:59;101282.91;;;9.42;96.85
16255;BME280;8235;52.198;9.904;2023-05-07T05:41:27;101289.00;;;9.44;97.13
16255;BME280;8235;52.198;9.904;2023-05-07T05:43:53;101291.59;;;9.45;97.00
16255;BME280;8235;52.198;9.904;2023-05-07T05:46:20;101299.56;;;9.45;96.50
16255;BME280;8235;52.198;9.904;2023-05-07T05:48:46;101302.22;;;9.45;96.62
16255;BME280;8235;52.198;9.904;2023-05-07T05:51:13;101290.81;;;9.43;95.97
16255;BME280;8235;52.198;9.904;2023-05-07T05:53:39;101291.72;;;9.42;95.87
16255;BME280;8235;52.198;9.904;2023-05-07T05:56:06;101305.81;;;9.44;95.76
16255;BME280;8235;52.198;9.904;2023-05-07T05:58:34;101294.31;;;9.44;95.67
16255;BME280;8235;52.198;9.904;2023-05-07T06:01:00;101288.94;;;9.45;95.33
16255;BME280;8235;52.198;9.904;2023-05-07T06:03:27;101285.19;;;9.49;95.63
16255;BME280;8235;52.198;9.904;2023-05-07T06:05:54;101286.88;;;9.50;95.41
16255;BME280;8235;52.198;9.904;2023-05-07T06:08:20;101278.78;;;9.53;93.97
16255;BME280;8235;52.198;9.904;2023-05-07T06:10:47;101283.16;;;9.54;94.66
16255;BME280;8235;52.198;9.904;2023-05-07T06:13:13;101289.34;;;9.55;94.17
16255;BME280;8235;52.198;9.904;2023-05-07T06:15:41;101298.97;;;9.57;94.76
16255;BME280;8235;52.198;9.904;2023-05-07T06:18:07;101298.81;;;9.60;95.00
16255;BME280;8235;52.198;9.904;2023-05-07T06:20:34;101290.63;;;9.65;93.97
16255;BME280;8235;52.198;9.904;2023-05-07T06:23:00;101291.31;;;9.68;93.97
16255;BME280;8235;52.198;9.904;2023-05-07T06:25:27;101298.34;;;9.69;93.59
16255;BME280;8235;52.198;9.904;2023-05-07T06:27:53;101294.75;;;9.70;93.39
16255;BME280;8235;52.198;9.904;2023-05-07T06:30:20;101296.34;;;9.74;93.75
16255;BME280;8235;52.198;9.904;2023-05-07T06:32:48;101299.78;;;9.77;93.66
16255;BME280;8235;52.198;9.904;2023-05-07T06:35:14;101306.69;;;9.81;93.65
16255;BME280;8235;52.198;9.904;2023-05-07T06:37:41;101303.81;;;9.85;92.88
16255;BME280;8235;52.198;9.904;2023-05-07T06:40:09;101304.47;;;9.89;91.93
16255;BME280;8235;52.198;9.904;2023-05-07T06:42:36;101297.22;;;9.92;91.83
16255;BME280;8235;52.198;9.904;2023-05-07T06:45:03;101303.19;;;9.97;92.18
16255;BME280;8235;52.198;9.904;2023-05-07T06:47:30;101300.38;;;10.00;92.07
16255;BME280;8235;52.198;9.904;2023-05-07T06:49:57;101305.44;;;10.05;91.41
16255;BME280;8235;52.198;9.904;2023-05-07T06:52:24;101306.06;;;10.10;91.08
16255;BME280;8235;52.198;9.904;2023-05-07T06:54:51;101315.63;;;10.14;90.33
16255;BME280;8235;52.198;9.904;2023-05-07T06:57:17;101304.81;;;10.17;90.28
16255;BME280;8235;52.198;9.904;2023-05-07T06:59:44;101303.75;;;10.21;90.67
16255;BME280;8235;52.198;9.904;2023-05-07T07:02:10;101306.88;;;10.29;90.27
16255;BME280;8235;52.198;9.904;2023-05-07T07:04:37;101306.81;;;10.31;89.27
16255;BME280;8235;52.198;9.904;2023-05-07T07:07:04;101313.94;;;10.30;88.78
16255;BME280;8235;52.198;9.904;2023-05-07T07:09:31;101312.91;;;10.33;88.94
16255;BME280;8235;52.198;9.904;2023-05-07T07:11:57;101318.09;;;10.36;88.63
16255;BME280;8235;52.198;9.904;2023-05-07T07:14:24;101315.28;;;10.39;88.21
16255;BME280;8235;52.198;9.904;2023-05-07T07:16:50;101308.91;;;10.41;87.86
16255;BME280;8235;52.198;9.904;2023-05-07T07:19:16;101310.63;;;10.42;87.62
16255;BME280;8235;52.198;9.904;2023-05-07T07:21:43;101311.31;;;10.46;87.42
16255;BME280;8235;52.198;9.904;2023-05-07T07:24:11;101320.88;;;10.50;86.92
16255;BME280;8235;52.198;9.904;2023-05-07T07:26:37;101315.47;;;10.52;85.82
16255;BME280;8235;52.198;9.904;2023-05-07T07:29:05;101325.91;;;10.56;86.01
16255;BME280;8235;52.198;9.904;2023-05-07T07:31:32;101326.50;;;10.61;86.09
16255;BME280;8235;52.198;9.904;2023-05-07T07:33:58;101325.09;;;10.71;85.93
16255;BME280;8235;52.198;9.904;2023-05-07T07:36:24;101327.25;;;10.81;85.78
16255;BME280;8235;52.198;9.904;2023-05-07T07:38:51;101316.19;;;10.88;85.43
16255;BME280;8235;52.198;9.904;2023-05-07T07:41:19;101319.34;;;10.95;84.41
16255;BME280;8235;52.198;9.904;2023-05-07T07:43:46;101314.72;;;10.98;84.00
16255;BME280;8235;52.198;9.904;2023-05-07T07:46:12;101307.34;;;11.03;83.47
16255;BME280;8235;52.198;9.904;2023-05-07T07:48:39;101318.56;;;11.10;83.49
16255;BME280;8235;52.198;9.904;2023-05-07T07:51:05;101327.06;;;11.17;83.40
16255;BME280;8235;52.198;9.904;2023-05-07T07:53:32;101323.53;;;11.16;82.61
16255;BME280;8235;52.198;9.904;2023-05-07T07:55:58;101333.00;;;11.22;82.99
16255;BME280;8235;52.198;9.904;2023-05-07T07:58:26;101327.50;;;11.25;82.83
16255;BME280;8235;52.198;9.904;2023-05-07T08:00:53;101334.38;;;11.29;82.31
16255;BME280;8235;52.198;9.904;2023-05-07T08:03:21;101341.41;;;11.30;81.98
16255;BME280;8235;52.198;9.904;2023-05-07T08:05:47;101336.09;;;11.30;81.68
16255;BME280;8235;52.198;9.904;2023-05-07T08:08:16;101336.09;;;11.30;81.41
16255;BME280;8235;52.198;9.904;2023-05-07T08:10:42;101333.53;;;11.28;80.83
16255;BME280;8235;52.198;9.904;2023-05-07T08:13:09;101338.88;;;11.28;81.14
16255;BME280;8235;52.198;9.904;2023-05-07T08:15:37;101339.69;;;11.29;81.08
16255;BME280;8235;52.198;9.904;2023-05-07T08:18:04;101337.03;;;11.29;81.21
16255;BME280;8235;52.198;9.904;2023-05-07T08:20:30;101343.16;;;11.31;81.74
16255;BME280;8235;52.198;9.904;2023-05-07T08:22:57;101339.53;;;11.32;81.91
16255;BME280;8235;52.198;9.904;2023-05-07T08:25:23;101335.75;;;11.36;82.57
16255;BME280;8235;52.198;9.904;2023-05-07T08:27:50;101333.00;;;11.37;82.17
16255;BME280;8235;52.198;9.904;2023-05-07T08:30:16;101336.53;;;11.38;82.07
16255;BME280;8235;52.198;9.904;2023-05-07T08:32:44;101337.31;;;11.40;81.68
16255;BME280;8235;52.198;9.904;2023-05-07T08:35:10;101339.22;;;11.38;81.42
16255;BME280;8235;52.198;9.904;2023-05-07T08:37:37;101343.50;;;11.40;81.57
16255;BME280;8235;52.198;9.904;2023-05-07T08:40:04;101356.69;;;11.43;81.58
16255;BME280;8235;52.198;9.904;2023-05-07T08:42:31;101354.50;;;11.50;81.36
16255;BME280;8235;52.198;9.904;2023-05-07T08:45:02;101355.28;;;11.52;81.20
16255;BME280;8235;52.198;9.904;2023-05-07T08:47:34;101357.88;;;11.54;80.95
16255;BME280;8235;52.198;9.904;2023-05-07T08:50:03;101364.00;;;11.56;81.18
16255;BME280;8235;52.198;9.904;2023-05-07T08:52:31;101356.75;;;11.58;81.13
16255;BME280;8235;52.198;9.904;2023-05-07T08:54:58;101361.06;;;11.60;81.09
16255;BME280;8235;52.198;9.904;2023-05-07T08:57:25;101361.66;;;11.65;81.19
16255;BME280;8235;52.198;9.904;2023-05-07T08:59:51;101357.88;;;11.69;80.99
16255;BME280;8235;52.198;9.904;2023-05-07T09:02:18;101352.28;;;11.74;80.73
16255;BME280;8235;52.198;9.904;2023-05-07T09:04:44;101350.41;;;11.76;80.05
16255;BME280;8235;52.198;9.904;2023-05-07T09:07:13;101352.16;;;11.77;80.24
16255;BME280;8235;52.198;9.904;2023-05-07T09:09:39;101351.88;;;11.81;80.25
16255;BME280;8235;52.198;9.904;2023-05-07T09:12:06;101357.09;;;11.83;80.15
16255;BME280;8235;52.198;9.904;2023-05-07T09:14:32;101358.75;;;11.86;80.13
16255;BME280;8235;52.198;9.904;2023-05-07T09:16:59;101350.66;;;11.87;80.26
16255;BME280;8235;52.198;9.904;2023-05-07T09:19:26;101350.41;;;11.92;80.41
16255;BME280;8235;52.198;9.904;2023-05-07T09:21:58;101349.19;;;11.97;79.83
16255;BME280;8235;52.198;9.904;2023-05-07T09:24:26;101352.81;;;11.96;79.60
16255;BME280;8235;52.198;9.904;2023-05-07T09:26:53;101355.56;;;11.95;79.36
16255;BME280;8235;52.198;9.904;2023-05-07T09:29:20;101350.91;;;11.98;79.31
16255;BME280;8235;52.198;9.904;2023-05-07T09:31:47;101357.00;;;12.00;79.75
16255;BME280;8235;52.198;9.904;2023-05-07T09:34:13;101350.72;;;12.01;79.59
16255;BME280;8235;52.198;9.904;2023-05-07T09:36:40;101353.50;;;12.00;79.36
16255;BME280;8235;52.198;9.904;2023-05-07T09:39:06;101370.25;;;12.02;79.52
16255;BME280;8235;52.198;9.904;2023-05-07T09:41:43;101363.88;;;12.04;79.06
16255;BME280;8235;52.198;9.904;2023-05-07T09:44:10;101357.69;;;12.04;78.60
16255;BME280;8235;52.198;9.904;2023-05-07T09:46:38;101355.78;;;12.06;78.35
16255;BME280;8235;52.198;9.904;2023-05-07T09:49:07;101356.56;;;12.08;78.42
16255;BME280;8235;52.198;9.904;2023-05-07T09:51:40;101352.94;;;12.09;78.78
16255;BME280;8235;52.198;9.904;2023-05-07T09:54:07;101360.88;;;12.10;78.43
16255;BME280;8235;52.198;9.904;2023-05-07T09:56:36;101361.72;;;12.11;78.77
16255;BME280;8235;52.198;9.904;2023-05-07T09:59:03;101360.69;;;12.13;79.25
16255;BME280;8235;52.198;9.904;2023-05-07T10:01:32;101351.44;;;12.19;78.70
16255;BME280;8235;52.198;9.904;2023-05-07T10:03:59;101356.69;;;12.21;78.88
16255;BME280;8235;52.198;9.904;2023-05-07T10:06:26;101354.53;;;12.27;78.63
16255;BME280;8235;52.198;9.904;2023-05-07T10:08:52;101357.97;;;12.29;78.17
16255;BME280;8235;52.198;9.904;2023-05-07T10:11:21;101360.38;;;12.34;77.89
16255;BME280;8235;52.198;9.904;2023-05-07T10:13:49;101363.91;;;12.34;76.79
16255;BME280;8235;52.198;9.904;2023-05-07T10:16:18;101366.50;;;12.36;77.12
16255;BME280;8235;52.198;9.904;2023-05-07T10:18:46;101363.63;;;12.39;76.97
16255;BME280;8235;52.198;9.904;2023-05-07T10:21:16;101370.22;;;12.33;76.79
16255;BME280;8235;52.198;9.904;2023-05-07T10:23:44;101364.88;;;12.33;76.87
16255;BME280;8235;52.198;9.904;2023-05-07T10:26:12;101371.25;;;12.31;76.85
16255;BME280;8235;52.198;9.904;2023-05-07T10:28:45;101375.56;;;12.33;77.36
16255;BME280;8235;52.198;9.904;2023-05-07T10:31:39;101381.47;;;12.38;77.68
16255;BME280;8235;52.198;9.904;2023-05-07T10:34:10;101376.13;;;12.38;77.34
16255;BME280;8235;52.198;9.904;2023-05-07T10:36:37;101376.97;;;12.39;77.29
16255;BME280;8235;52.198;9.904;2023-05-07T10:39:06;101374.22;;;12.40;77.47
16255;BME280;8235;52.198;9.904;2023-05-07T10:41:33;101369.56;;;12.44;77.36
16255;BME280;8235;52.198;9.904;2023-05-07T10:44:00;101381.78;;;12.48;77.32
16255;BME280;8235;52.198;9.904;2023-05-07T10:46:29;101382.47;;;12.51;77.42
16255;BME280;8235;52.198;9.904;2023-05-07T10:49:13;101373.50;;;12.52;76.68
16255;BME280;8235;52.198;9.904;2023-05-07T10:51:41;101378.06;;;12.50;76.37
16255;BME280;8235;52.198;9.904;2023-05-07T10:54:21;101379.72;;;12.53;75.95
16255;BME280;8235;52.198;9.904;2023-05-07T10:56:49;101380.34;;;12.57;76.83
16255;BME280;8235;52.198;9.904;2023-05-07T10:59:38;101375.44;;;12.65;76.76
16255;BME280;8235;52.198;9.904;2023-05-07T11:02:10;101375.81;;;12.73;78.01
16255;BME280;8235;52.198;9.904;2023-05-07T11:04:39;101387.00;;;12.79;76.98
16255;BME280;8235;52.198;9.904;2023-05-07T11:07:31;101381.28;;;12.85;76.82
16255;BME280;8235;52.198;9.904;2023-05-07T11:10:02;101385.38;;;12.91;76.34
16255;BME280;8235;52.198;9.904;2023-05-07T11:12:49;101384.34;;;12.94;76.12
16255;BME280;8235;52.198;9.904;2023-05-07T11:15:47;101380.44;;;12.99;76.31
16255;BME280;8235;52.198;9.904;2023-05-07T11:18:17;101372.13;;;13.04;76.24
16255;BME280;8235;52.198;9.904;2023-05-07T11:20:46;101374.72;;;13.05;75.24
16255;BME280;8235;52.198;9.904;2023-05-07T11:26:17;101381.00;;;13.04;75.02
16255;BME280;8235;52.198;9.904;2023-05-07T11:28:45;101372.81;;;13.07;74.79
16255;BME280;8235;52.198;9.904;2023-05-07T11:31:12;101377.84;;;13.12;74.73
16255;BME280;8235;52.198;9.904;2023-05-07T11:33:40;101367.84;;;13.15;74.46
16255;BME280;8235;52.198;9.904;2023-05-07T11:36:10;101378.38;;;13.18;74.45
16255;BME280;8235;52.198;9.904;2023-05-07T11:38:37;101374.56;;;13.23;74.32
16255;BME280;8235;52.198;9.904;2023-05-07T11:41:05;101383.88;;;13.30;74.35
16255;BME280;8235;52.198;9.904;2023-05-07T11:43:32;101375.50;;;13.36;74.39
16255;BME280;8235;52.198;9.904;2023-05-07T11:46:09;101374.63;;;13.35;73.20
16255;BME280;8235;52.198;9.904;2023-05-07T11:48:36;101378.94;;;13.38;73.00
16255;BME280;8235;52.198;9.904;2023-05-07T11:51:06;101374.25;;;13.41;73.08
16255;BME280;8235;52.198;9.904;2023-05-07T11:53:38;101363.22;;;13.46;72.99
16255;BME280;8235;52.198;9.904;2023-05-07T11:56:08;101375.38;;;13.51;72.85
16255;BME280;8235;52.198;9.904;2023-05-07T11:58:35;101373.25;;;13.57;72.69
16255;BME280;8235;52.198;9.904;2023-05-07T12:01:03;101367.81;;;13.58;71.47
16255;BME280;8235;52.198;9.904;2023-05-07T12:03:30;101365.25;;;13.57;71.71
16255;BME280;8235;52.198;9.904;2023-05-07T12:05:57;101379.38;;;13.59;71.44
16255;BME280;8235;52.198;9.904;2023-05-07T12:08:27;101361.28;;;13.62;71.82
16255;BME280;8235;52.198;9.904;2023-05-07T12:10:54;101372.66;;;13.66;71.54
16255;BME280;8235;52.198;9.904;2023-05-07T12:13:25;101375.03;;;13.70;71.21
16255;BME280;8235;52.198;9.904;2023-05-07T12:15:52;101385.38;;;13.76;71.87
16255;BME280;8235;52.198;9.904;2023-05-07T12:18:19;101383.22;;;13.81;71.10
16255;BME280;8235;52.198;9.904;2023-05-07T12:20:47;101383.03;;;13.84;70.51
16255;BME280;8235;52.198;9.904;2023-05-07T12:23:15;101391.81;;;13.86;70.68
16255;BME280;8235;52.198;9.904;2023-05-07T12:25:43;101384.34;;;13.92;70.59
16255;BME280;8235;52.198;9.904;2023-05-07T12:28:13;101383.31;;;13.94;69.89
16255;BME280;8235;52.198;9.904;2023-05-07T12:30:42;101393.81;;;13.97;69.93
16255;BME280;8235;52.198;9.904;2023-05-07T12:33:10;101387.28;;;14.01;70.24
16255;BME280;8235;52.198;9.904;2023-05-07T12:35:38;101387.66;;;14.09;70.01
16255;BME280;8235;52.198;9.904;2023-05-07T12:38:08;101389.25;;;14.12;70.04
16255;BME280;8235;52.198;9.904;2023-05-07T12:40:36;101392.69;;;14.14;69.49
16255;BME280;8235;52.198;9.904;2023-05-07T12:43:06;101381.75;;;14.17;69.28
16255;BME280;8235;52.198;9.904;2023-05-07T12:45:37;101378.88;;;14.20;68.55
16255;BME280;8235;52.198;9.904;2023-05-07T12:48:05;101381.47;;;14.21;68.42
16255;BME280;8235;52.198;9.904;2023-05-07T12:50:33;101376.09;;;14.21;68.91
16255;BME280;8235;52.198;9.904;2023-05-07T12:53:02;101378.69;;;14.23;68.59
16255;BME280;8235;52.198;9.904;2023-05-07T12:55:31;101383.09;;;14.24;68.95
16255;BME280;8235;52.198;9.904;2023-05-07T12:58:01;101375.91;;;14.24;68.38
16255;BME280;8235;52.198;9.904;2023-05-07T13:00:39;101373.13;;;14.26;68.44
16255;BME280;8235;52.198;9.904;2023-05-07T13:03:07;101374.41;;;14.33;68.99
16255;BME280;8235;52.198;9.904;2023-05-07T13:05:34;101368.09;;;14.34;68.76
16255;BME280;8235;52.198;9.904;2023-05-07T13:08:04;101371.16;;;14.42;69.98
16255;BME280;8235;52.198;9.904;2023-05-07T13:10:31;101364.19;;;14.52;69.47